Terminal Aerodrome Forecast
Issued by NWS

Home | Current Version | Previous Version | Text Only | Print | Product List | Glossary On
Versions: 1 2 3 4 5 6 7 8 9 10 11 12 13 14
000
FTUS46 KSEW 171700
TAFBLI
TAF
KBLI 171728Z 1718/1818 18004KT P6SM VCSH SCT100 BKN120 BKN250
      TEMPO 1719/1723 -SHRA
     FM180700 18005KT P6SM -SHRA BKN060 OVC100
     FM181000 17006KT P6SM -SHRA BKN040 OVC070=

USA.gov is the U.S. government's official web portal to all federal, state and local government web resources and services.